MST,Max TemperatureF,Mean TemperatureF,Min TemperatureF,Max Dew PointF,MeanDew PointF,Min DewpointF,Max Humidity, Mean Humidity, Min Humidity, Max Sea Level PressureIn, Mean Sea Level PressureIn, Min Sea Level PressureIn, Max VisibilityMiles, Mean VisibilityMiles, Min VisibilityMiles, Max Wind SpeedMPH, Mean Wind SpeedMPH, Max Gust SpeedMPH,PrecipitationIn, CloudCover, Events, WindDirDegrees
2013-2-1,37,26,15,22,19,10,81,65,48,30.43,30.29,30.21,10,10,10,17,4,22,0.00,5,,295
2013-2-2,37,23,8,20,12,5,92,70,48,30.63,30.54,30.45,10,10,10,8,1,9,0.00,0,,75
2013-2-3,34,22,10,17,11,6,84,66,47,30.45,30.31,30.18,10,10,10,8,1,8,0.00,0,,50
2013-2-4,39,22,4,19,11,1,88,66,44,30.37,30.27,30.16,10,10,10,8,1,13,0.00,1,,40
2013-2-5,42,26,10,26,16,6,80,62,44,30.31,30.15,30.00,10,10,10,16,2,20,0.00,2,,54
2013-2-6,41,28,14,30,25,13,92,73,54,30.21,30.04,29.94,10,6,1,13,2,17,0.01,7,Snow,149
2013-2-7,35,20,5,18,10,2,92,70,47,30.38,30.23,30.15,10,8,0,8,2,12,0.00,2,Fog,56
2013-2-8,44,25,5,29,21,2,92,63,34,30.17,29.79,29.66,10,6,0,24,5,30,0.01,6,Fog-Snow,40
2013-2-9,30,19,8,27,22,6,100,85,69,29.81,29.66,29.61,10,4,0,16,4,20,0.07,7,Fog-Snow,350
2013-2-10,29,19,9,18,14,8,92,75,58,30.04,29.87,29.72,10,6,1,15,3,18,0.01,7,Snow,41
2013-2-11,23,9,-6,11,7,-10,92,71,49,30.37,30.05,29.89,10,4,0,9,3,12,0.07,6,Fog-Snow,250
2013-2-12,25,6,-14,9,-1,-14,91,69,46,30.56,30.45,30.38,10,10,10,8,1,8,0.00,2,,45
2013-2-13,33,22,10,17,13,8,84,67,49,30.39,30.30,30.21,10,10,10,8,1,9,0.00,4,,68
2013-2-14,33,24,14,22,17,11,92,81,69,30.40,30.25,30.14,10,6,1,13,2,16,0.02,8,Snow,331
2013-2-15,32,21,9,18,14,6,88,73,58,30.58,30.49,30.36,10,10,6,12,3,15,T,5,Snow,70
2013-2-16,42,23,3,18,9,0,87,64,40,30.62,30.45,30.21,10,10,10,7,2,10,0.00,0,,52
2013-2-17,43,26,9,23,14,3,80,55,29,30.18,29.92,29.74,10,8,2,23,6,31,T,4,Snow,339
2013-2-18,31,20,8,15,9,3,80,60,39,30.25,30.17,29.99,10,10,10,8,2,10,T,2,,73
2013-2-19,43,23,3,16,6,-3,83,55,27,30.20,29.97,29.75,10,10,10,20,4,24,0.00,0,,61
2013-2-20,42,26,10,16,10,4,74,53,32,29.73,29.65,29.52,10,10,10,14,3,17,0.00,2,,12
2013-2-21,28,21,13,20,15,9,92,77,62,30.00,29.81,29.61,10,7,1,12,3,15,T,8,Snow,86
2013-2-22,27,17,6,18,13,2,88,67,46,30.20,29.99,29.88,10,5,1,10,2,13,0.03,7,Snow,106
2013-2-23,32,16,0,25,17,-4,92,73,53,30.18,29.84,29.69,10,4,0,18,6,22,0.05,7,Fog-Snow,295
2013-2-24,27,14,1,16,14,1,92,75,57,30.28,29.91,29.75,10,5,1,25,6,32,0.06,7,Snow,308
2013-2-25,28,9,-10,10,1,-14,87,63,39,30.40,30.27,30.05,10,10,10,8,1,9,0.00,1,,85
2013-2-26,25,16,7,19,13,3,92,74,55,30.35,30.04,29.85,10,5,1,17,4,21,0.02,8,Snow,325
2013-2-27,28,12,-4,11,2,-5,88,63,38,30.59,30.42,30.19,10,9,5,9,3,10,T,3,Snow,52
2013-2-28,30,11,-8,20,8,-9,91,69,46,30.70,30.58,30.52,10,10,10,10,2,13,T,5,,48